sensor_id;sensor_type;location;lat;lon;timestamp;pressure;altitude;pressure_sealevel;temperature;humidity
23223;BME280;11780;13.904;100.620;2023-08-21T00:01:53;100674.34;;;31.58;69.48
23223;BME280;11780;13.904;100.620;2023-08-21T00:04:23;100687.03;;;31.59;69.26
23223;BME280;11780;13.904;100.620;2023-08-21T00:06:53;100694.53;;;31.59;69.40
23223;BME280;11780;13.904;100.620;2023-08-21T00:09:24;100706.22;;;31.65;69.45
23223;BME280;11780;13.904;100.620;2023-08-21T00:11:54;100712.41;;;31.62;69.44
23223;BME280;11780;13.904;100.620;2023-08-21T00:14:24;100718.72;;;31.62;69.34
23223;BME280;11780;13.904;100.620;2023-08-21T00:16:55;100716.97;;;31.57;69.55
23223;BME280;11780;13.904;100.620;2023-08-21T00:19:25;100724.25;;;31.62;69.45
23223;BME280;11780;13.904;100.620;2023-08-21T00:21:55;100729.00;;;31.62;69.40
23223;BME280;11780;13.904;100.620;2023-08-21T00:24:26;100727.50;;;31.64;69.09
23223;BME280;11780;13.904;100.620;2023-08-21T00:26:57;100740.19;;;31.65;68.99
23223;BME280;11780;13.904;100.620;2023-08-21T00:29:27;100742.97;;;31.65;69.25
23223;BME280;11780;13.904;100.620;2023-08-21T00:31:58;100741.81;;;31.66;68.78
23223;BME280;11780;13.904;100.620;2023-08-21T00:34:28;100748.19;;;31.67;68.89
23223;BME280;11780;13.904;100.620;2023-08-21T00:36:58;100747.69;;;31.65;68.88
23223;BME280;11780;13.904;100.620;2023-08-21T00:39:29;100752.88;;;31.66;69.07
23223;BME280;11780;13.904;100.620;2023-08-21T00:41:59;100755.34;;;31.68;69.17
23223;BME280;11780;13.904;100.620;2023-08-21T00:44:29;100754.16;;;31.69;69.01
23223;BME280;11780;13.904;100.620;2023-08-21T00:47:00;100760.38;;;31.74;69.09
23223;BME280;11780;13.904;100.620;2023-08-21T00:49:32;100758.44;;;31.75;69.05
23223;BME280;11780;13.904;100.620;2023-08-21T00:52:02;100765.09;;;31.74;68.71
23223;BME280;11780;13.904;100.620;2023-08-21T00:54:33;100759.41;;;31.70;69.14
23223;BME280;11780;13.904;100.620;2023-08-21T00:57:04;100763.28;;;31.69;69.03
23223;BME280;11780;13.904;100.620;2023-08-21T00:59:36;100773.41;;;31.74;68.89
23223;BME280;11780;13.904;100.620;2023-08-21T01:02:07;100772.25;;;31.75;68.82
23223;BME280;11780;13.904;100.620;2023-08-21T01:04:37;100786.41;;;31.73;69.06
23223;BME280;11780;13.904;100.620;2023-08-21T01:07:08;100783.31;;;31.75;68.99
23223;BME280;11780;13.904;100.620;2023-08-21T01:10:03;100789.69;;;31.76;68.89
23223;BME280;11780;13.904;100.620;2023-08-21T01:12:55;100789.50;;;31.72;68.72
23223;BME280;11780;13.904;100.620;2023-08-21T01:15:27;100787.88;;;31.71;68.79
23223;BME280;11780;13.904;100.620;2023-08-21T01:18:00;100796.34;;;31.74;68.81
23223;BME280;11780;13.904;100.620;2023-08-21T01:20:30;100802.81;;;31.79;68.68
23223;BME280;11780;13.904;100.620;2023-08-21T01:23:09;100801.53;;;31.76;68.68
23223;BME280;11780;13.904;100.620;2023-08-21T01:25:40;100801.53;;;31.76;68.62
23223;BME280;11780;13.904;100.620;2023-08-21T01:28:10;100811.94;;;31.79;68.91
23223;BME280;11780;13.904;100.620;2023-08-21T01:30:40;100811.81;;;31.76;68.98
23223;BME280;11780;13.904;100.620;2023-08-21T01:33:12;100820.09;;;31.76;68.99
23223;BME280;11780;13.904;100.620;2023-08-21T01:35:45;100821.38;;;31.78;68.92
23223;BME280;11780;13.904;100.620;2023-08-21T01:38:16;100821.88;;;31.80;68.78
23223;BME280;11780;13.904;100.620;2023-08-21T01:40:47;100834.06;;;31.79;68.78
23223;BME280;11780;13.904;100.620;2023-08-21T01:43:17;100834.88;;;31.80;69.01
23223;BME280;11780;13.904;100.620;2023-08-21T01:45:48;100838.97;;;31.82;68.82
23223;BME280;11780;13.904;100.620;2023-08-21T01:48:19;100835.34;;;31.82;69.16
23223;BME280;11780;13.904;100.620;2023-08-21T01:50:49;100840.59;;;31.83;68.82
23223;BME280;11780;13.904;100.620;2023-08-21T01:53:21;100842.34;;;31.88;68.82
23223;BME280;11780;13.904;100.620;2023-08-21T01:55:52;100843.00;;;31.85;68.90
23223;BME280;11780;13.904;100.620;2023-08-21T01:58:22;100841.22;;;31.89;69.11
23223;BME280;11780;13.904;100.620;2023-08-21T02:00:52;100840.88;;;31.91;69.11
23223;BME280;11780;13.904;100.620;2023-08-21T02:03:25;100847.25;;;31.91;69.00
23223;BME280;11780;13.904;100.620;2023-08-21T02:05:56;100841.72;;;31.91;69.20
23223;BME280;11780;13.904;100.620;2023-08-21T02:08:33;100846.41;;;31.91;69.19
23223;BME280;11780;13.904;100.620;2023-08-21T02:11:03;100843.78;;;31.94;69.20
23223;BME280;11780;13.904;100.620;2023-08-21T02:13:34;100842.16;;;31.93;69.15
23223;BME280;11780;13.904;100.620;2023-08-21T02:16:05;100838.59;;;31.93;69.16
23223;BME280;11780;13.904;100.620;2023-08-21T02:18:35;100838.94;;;31.91;69.03
23223;BME280;11780;13.904;100.620;2023-08-21T02:21:05;100838.75;;;31.96;68.90
23223;BME280;11780;13.904;100.620;2023-08-21T02:23:35;100837.13;;;31.95;69.31
23223;BME280;11780;13.904;100.620;2023-08-21T02:26:05;100828.03;;;31.95;68.93
23223;BME280;11780;13.904;100.620;2023-08-21T02:28:39;100833.69;;;31.98;68.79
23223;BME280;11780;13.904;100.620;2023-08-21T02:31:10;100831.75;;;31.99;69.23
23223;BME280;11780;13.904;100.620;2023-08-21T02:33:40;100816.09;;;32.03;69.08
23223;BME280;11780;13.904;100.620;2023-08-21T02:36:12;100821.63;;;32.03;69.10
23223;BME280;11780;13.904;100.620;2023-08-21T02:38:42;100818.88;;;32.03;68.79
23223;BME280;11780;13.904;100.620;2023-08-21T02:41:12;100810.56;;;32.03;69.13
23223;BME280;11780;13.904;100.620;2023-08-21T02:43:44;100813.81;;;32.05;68.89
23223;BME280;11780;13.904;100.620;2023-08-21T02:46:14;100810.75;;;32.07;68.65
23223;BME280;11780;13.904;100.620;2023-08-21T02:48:46;100801.63;;;32.06;68.66
23223;BME280;11780;13.904;100.620;2023-08-21T02:51:17;100796.56;;;32.08;68.52
23223;BME280;11780;13.904;100.620;2023-08-21T02:53:47;100795.75;;;32.08;67.76
23223;BME280;11780;13.904;100.620;2023-08-21T02:56:18;100792.66;;;32.09;68.06
23223;BME280;11780;13.904;100.620;2023-08-21T02:58:48;100799.69;;;32.07;68.26
23223;BME280;11780;13.904;100.620;2023-08-21T03:01:19;100795.91;;;32.11;68.14
23223;BME280;11780;13.904;100.620;2023-08-21T03:03:49;100793.16;;;32.11;68.20
23223;BME280;11780;13.904;100.620;2023-08-21T03:06:20;100792.81;;;32.13;68.29
23223;BME280;11780;13.904;100.620;2023-08-21T03:08:50;100795.72;;;32.16;68.06
23223;BME280;11780;13.904;100.620;2023-08-21T03:11:21;100794.91;;;32.16;68.31
23223;BME280;11780;13.904;100.620;2023-08-21T03:13:51;100799.66;;;32.15;68.35
23223;BME280;11780;13.904;100.620;2023-08-21T03:16:22;100794.25;;;32.19;68.06
23223;BME280;11780;13.904;100.620;2023-08-21T03:19:00;100797.81;;;32.19;68.04
23223;BME280;11780;13.904;100.620;2023-08-21T03:21:31;100783.50;;;32.17;68.09
23223;BME280;11780;13.904;100.620;2023-08-21T03:24:02;100786.75;;;32.19;68.40
23223;BME280;11780;13.904;100.620;2023-08-21T03:26:33;100792.78;;;32.22;68.02
23223;BME280;11780;13.904;100.620;2023-08-21T03:29:03;100775.03;;;32.23;67.96
23223;BME280;11780;13.904;100.620;2023-08-21T03:31:34;100786.09;;;32.23;67.44
23223;BME280;11780;13.904;100.620;2023-08-21T03:34:05;100779.41;;;32.24;67.76
23223;BME280;11780;13.904;100.620;2023-08-21T03:36:35;100788.50;;;32.24;67.86
23223;BME280;11780;13.904;100.620;2023-08-21T03:39:08;100784.59;;;32.25;67.64
23223;BME280;11780;13.904;100.620;2023-08-21T03:41:43;100782.69;;;32.26;67.55
23223;BME280;11780;13.904;100.620;2023-08-21T03:44:15;100781.56;;;32.27;67.37
23223;BME280;11780;13.904;100.620;2023-08-21T03:46:46;100783.19;;;32.28;67.71
23223;BME280;11780;13.904;100.620;2023-08-21T03:49:17;100782.19;;;32.24;67.64
23223;BME280;11780;13.904;100.620;2023-08-21T03:51:48;100778.78;;;32.27;67.46
23223;BME280;11780;13.904;100.620;2023-08-21T03:54:20;100768.50;;;32.27;67.26
23223;BME280;11780;13.904;100.620;2023-08-21T03:56:50;100773.72;;;32.29;67.47
23223;BME280;11780;13.904;100.620;2023-08-21T03:59:21;100765.75;;;32.27;67.14
23223;BME280;11780;13.904;100.620;2023-08-21T04:01:53;100766.88;;;32.26;66.60
23223;BME280;11780;13.904;100.620;2023-08-21T04:04:24;100758.75;;;32.30;66.42
23223;BME280;11780;13.904;100.620;2023-08-21T04:06:57;100767.06;;;32.30;67.07
23223;BME280;11780;13.904;100.620;2023-08-21T04:09:28;100753.66;;;32.32;67.21
23223;BME280;11780;13.904;100.620;2023-08-21T04:11:58;100754.84;;;32.31;66.53
23223;BME280;11780;13.904;100.620;2023-08-21T04:14:28;100751.25;;;32.30;66.58
23223;BME280;11780;13.904;100.620;2023-08-21T04:16:59;100751.38;;;32.34;66.44
23223;BME280;11780;13.904;100.620;2023-08-21T04:19:29;100750.22;;;32.35;66.19
23223;BME280;11780;13.904;100.620;2023-08-21T04:22:02;100748.28;;;32.36;65.98
23223;BME280;11780;13.904;100.620;2023-08-21T04:24:33;100743.78;;;32.31;66.51
23223;BME280;11780;13.904;100.620;2023-08-21T04:27:03;100748.63;;;32.34;66.07
23223;BME280;11780;13.904;100.620;2023-08-21T04:29:35;100746.31;;;32.36;66.79
23223;BME280;11780;13.904;100.620;2023-08-21T04:32:06;100741.94;;;32.35;66.81
23223;BME280;11780;13.904;100.620;2023-08-21T04:34:36;100742.75;;;32.36;66.46
23223;BME280;11780;13.904;100.620;2023-08-21T04:37:07;100742.59;;;32.32;66.47
23223;BME280;11780;13.904;100.620;2023-08-21T04:39:37;100739.50;;;32.33;66.54
23223;BME280;11780;13.904;100.620;2023-08-21T04:42:09;100742.75;;;32.36;66.74
23223;BME280;11780;13.904;100.620;2023-08-21T04:44:40;100747.16;;;32.37;66.22
23223;BME280;11780;13.904;100.620;2023-08-21T04:47:22;100741.75;;;32.40;66.20
23223;BME280;11780;13.904;100.620;2023-08-21T04:49:56;100740.31;;;32.34;66.34
23223;BME280;11780;13.904;100.620;2023-08-21T04:52:28;100741.94;;;32.35;66.41
23223;BME280;11780;13.904;100.620;2023-08-21T04:54:59;100744.88;;;32.39;66.38
23223;BME280;11780;13.904;100.620;2023-08-21T04:57:32;100747.28;;;32.40;66.55
23223;BME280;11780;13.904;100.620;2023-08-21T05:00:08;100737.84;;;32.41;66.31
23223;BME280;11780;13.904;100.620;2023-08-21T05:02:41;100742.22;;;32.42;66.11
23223;BME280;11780;13.904;100.620;2023-08-21T05:05:12;100737.84;;;32.41;66.58
23223;BME280;11780;13.904;100.620;2023-08-21T05:07:42;100735.06;;;32.41;66.36
23223;BME280;11780;13.904;100.620;2023-08-21T05:10:13;100727.91;;;32.40;66.62
23223;BME280;11780;13.904;100.620;2023-08-21T05:12:45;100725.13;;;32.40;66.58
23223;BME280;11780;13.904;100.620;2023-08-21T05:15:17;100728.38;;;32.42;66.45
23223;BME280;11780;13.904;100.620;2023-08-21T05:17:48;100715.03;;;32.44;66.39
23223;BME280;11780;13.904;100.620;2023-08-21T05:20:19;100720.09;;;32.42;66.42
23223;BME280;11780;13.904;100.620;2023-08-21T05:22:50;100710.94;;;32.42;66.40
23223;BME280;11780;13.904;100.620;2023-08-21T05:25:20;100702.81;;;32.45;66.72
23223;BME280;11780;13.904;100.620;2023-08-21T05:27:50;100702.47;;;32.47;66.80
23223;BME280;11780;13.904;100.620;2023-08-21T05:30:21;100700.03;;;32.45;66.48
23223;BME280;11780;13.904;100.620;2023-08-21T05:32:51;100696.44;;;32.45;66.60
23223;BME280;11780;13.904;100.620;2023-08-21T05:35:23;100692.19;;;32.47;66.49
23223;BME280;11780;13.904;100.620;2023-08-21T05:37:57;100678.69;;;32.46;66.36
23223;BME280;11780;13.904;100.620;2023-08-21T05:40:28;100669.59;;;32.45;66.52
23223;BME280;11780;13.904;100.620;2023-08-21T05:42:58;100673.28;;;32.49;66.31
23223;BME280;11780;13.904;100.620;2023-08-21T05:45:29;100666.94;;;32.49;66.38
23223;BME280;11780;13.904;100.620;2023-08-21T05:48:00;100662.44;;;32.44;66.37
23223;BME280;11780;13.904;100.620;2023-08-21T05:50:30;100662.91;;;32.46;66.37
23223;BME280;11780;13.904;100.620;2023-08-21T05:53:01;100650.53;;;32.44;65.95
23223;BME280;11780;13.904;100.620;2023-08-21T05:55:32;100652.03;;;32.41;66.44
23223;BME280;11780;13.904;100.620;2023-08-21T05:58:03;100647.88;;;32.47;66.43
23223;BME280;11780;13.904;100.620;2023-08-21T06:00:34;100640.75;;;32.46;66.23
23223;BME280;11780;13.904;100.620;2023-08-21T06:03:05;100632.44;;;32.46;66.49
23223;BME280;11780;13.904;100.620;2023-08-21T06:05:56;100616.75;;;32.50;66.50
23223;BME280;11780;13.904;100.620;2023-08-21T06:08:26;100612.25;;;32.46;66.13
23223;BME280;11780;13.904;100.620;2023-08-21T06:10:56;100610.44;;;32.50;65.91
23223;BME280;11780;13.904;100.620;2023-08-21T06:13:27;100598.88;;;32.48;65.96
23223;BME280;11780;13.904;100.620;2023-08-21T06:15:57;100601.31;;;32.49;65.79
23223;BME280;11780;13.904;100.620;2023-08-21T06:18:28;100601.53;;;32.44;66.02
23223;BME280;11780;13.904;100.620;2023-08-21T06:20:58;100603.16;;;32.45;65.77
23223;BME280;11780;13.904;100.620;2023-08-21T06:23:29;100603.59;;;32.47;65.96
23223;BME280;11780;13.904;100.620;2023-08-21T06:25:59;100604.63;;;32.43;66.27
23223;BME280;11780;13.904;100.620;2023-08-21T06:28:30;100610.75;;;32.48;66.37
23223;BME280;11780;13.904;100.620;2023-08-21T06:31:00;100606.50;;;32.51;66.58
23223;BME280;11780;13.904;100.620;2023-08-21T06:37:03;100608.47;;;32.50;66.55
23223;BME280;11780;13.904;100.620;2023-08-21T06:39:35;100599.00;;;32.52;66.43
23223;BME280;11780;13.904;100.620;2023-08-21T06:42:05;100599.22;;;32.46;66.15
23223;BME280;11780;13.904;100.620;2023-08-21T06:44:45;100598.75;;;32.44;66.55
23223;BME280;11780;13.904;100.620;2023-08-21T06:47:15;100618.44;;;32.43;67.17
23223;BME280;11780;13.904;100.620;2023-08-21T06:49:46;100625.75;;;32.47;67.12
23223;BME280;11780;13.904;100.620;2023-08-21T06:52:17;100609.94;;;32.48;66.87
23223;BME280;11780;13.904;100.620;2023-08-21T06:54:47;100603.75;;;32.51;66.84
23223;BME280;11780;13.904;100.620;2023-08-21T06:57:17;100599.69;;;32.48;66.46
23223;BME280;11780;13.904;100.620;2023-08-21T06:59:48;100583.06;;;32.48;66.29
23223;BME280;11780;13.904;100.620;2023-08-21T07:02:35;100572.69;;;32.45;66.61
23223;BME280;11780;13.904;100.620;2023-08-21T07:05:06;100569.94;;;32.45;66.37
23223;BME280;11780;13.904;100.620;2023-08-21T07:07:39;100561.63;;;32.45;66.57
23223;BME280;11780;13.904;100.620;2023-08-21T07:10:09;100557.22;;;32.44;66.54
23223;BME280;11780;13.904;100.620;2023-08-21T07:12:40;100561.81;;;32.40;65.88
23223;BME280;11780;13.904;100.620;2023-08-21T07:15:10;100562.75;;;32.44;65.59
23223;BME280;11780;13.904;100.620;2023-08-21T07:17:41;100564.72;;;32.44;65.45
23223;BME280;11780;13.904;100.620;2023-08-21T07:20:12;100552.00;;;32.43;65.24
23223;BME280;11780;13.904;100.620;2023-08-21T07:22:42;100550.06;;;32.43;65.47
23223;BME280;11780;13.904;100.620;2023-08-21T07:25:13;100538.53;;;32.41;65.67
23223;BME280;11780;13.904;100.620;2023-08-21T07:27:43;100533.66;;;32.38;65.77
23223;BME280;11780;13.904;100.620;2023-08-21T07:30:16;100536.06;;;32.40;65.85
23223;BME280;11780;13.904;100.620;2023-08-21T07:32:48;100523.53;;;32.42;65.68
23223;BME280;11780;13.904;100.620;2023-08-21T07:35:19;100506.81;;;32.39;64.71
23223;BME280;11780;13.904;100.620;2023-08-21T07:37:50;100490.03;;;32.35;64.14
23223;BME280;11780;13.904;100.620;2023-08-21T07:40:21;100470.19;;;32.33;64.15
23223;BME280;11780;13.904;100.620;2023-08-21T07:42:51;100459.84;;;32.30;64.17
23223;BME280;11780;13.904;100.620;2023-08-21T07:45:21;100452.69;;;32.29;64.32
23223;BME280;11780;13.904;100.620;2023-08-21T07:47:52;100430.06;;;32.27;64.42
23223;BME280;11780;13.904;100.620;2023-08-21T07:50:40;100423.38;;;32.28;64.44
23223;BME280;11780;13.904;100.620;2023-08-21T07:53:11;100413.75;;;32.25;64.73
23223;BME280;11780;13.904;100.620;2023-08-21T07:55:41;100408.56;;;32.24;64.78
23223;BME280;11780;13.904;100.620;2023-08-21T07:58:11;100411.00;;;32.25;64.69
23223;BME280;11780;13.904;100.620;2023-08-21T08:00:42;100413.63;;;32.22;65.29
23223;BME280;11780;13.904;100.620;2023-08-21T08:03:13;100421.25;;;32.25;65.08
23223;BME280;11780;13.904;100.620;2023-08-21T08:05:44;100420.16;;;32.26;65.58
23223;BME280;11780;13.904;100.620;2023-08-21T08:08:22;100428.91;;;32.28;65.29
23223;BME280;11780;13.904;100.620;2023-08-21T08:10:52;100441.13;;;32.27;65.55
23223;BME280;11780;13.904;100.620;2023-08-21T08:13:23;100430.06;;;32.27;65.48
23223;BME280;11780;13.904;100.620;2023-08-21T08:15:53;100428.09;;;32.27;65.40
23223;BME280;11780;13.904;100.620;2023-08-21T08:18:24;100431.69;;;32.28;65.79
23223;BME280;11780;13.904;100.620;2023-08-21T08:20:54;100434.44;;;32.28;65.71
23223;BME280;11780;13.904;100.620;2023-08-21T08:23:24;100440.91;;;32.32;66.06
23223;BME280;11780;13.904;100.620;2023-08-21T08:25:55;100426.75;;;32.33;66.08
23223;BME280;11780;13.904;100.620;2023-08-21T08:28:25;100420.38;;;32.33;66.08
23223;BME280;11780;13.904;100.620;2023-08-21T08:30:55;100413.69;;;32.34;66.29
23223;BME280;11780;13.904;100.620;2023-08-21T08:33:27;100429.63;;;32.37;66.32
23223;BME280;11780;13.904;100.620;2023-08-21T08:35:57;100437.94;;;32.37;66.49
23223;BME280;11780;13.904;100.620;2023-08-21T08:38:28;100448.22;;;32.37;66.56
23223;BME280;11780;13.904;100.620;2023-08-21T08:40:58;100457.09;;;32.42;66.49
23223;BME280;11780;13.904;100.620;2023-08-21T08:43:31;100477.63;;;32.41;66.70
23223;BME280;11780;13.904;100.620;2023-08-21T08:46:01;100475.31;;;32.43;66.64
23223;BME280;11780;13.904;100.620;2023-08-21T08:48:34;100477.63;;;32.41;66.48
23223;BME280;11780;13.904;100.620;2023-08-21T08:51:04;100473.34;;;32.44;67.10
23223;BME280;11780;13.904;100.620;2023-08-21T08:53:35;100479.56;;;32.41;66.76
23223;BME280;11780;13.904;100.620;2023-08-21T08:56:06;100480.88;;;32.43;66.94
23223;BME280;11780;13.904;100.620;2023-08-21T08:58:37;100491.47;;;32.41;66.80
23223;BME280;11780;13.904;100.620;2023-08-21T09:01:07;100493.56;;;32.44;66.41
23223;BME280;11780;13.904;100.620;2023-08-21T09:03:37;100491.66;;;32.36;66.41
23223;BME280;11780;13.904;100.620;2023-08-21T09:06:08;100495.38;;;32.40;66.42
23223;BME280;11780;13.904;100.620;2023-08-21T09:08:38;100493.69;;;32.48;66.27
23223;BME280;11780;13.904;100.620;2023-08-21T09:11:09;100498.28;;;32.44;66.11
23223;BME280;11780;13.904;100.620;2023-08-21T09:13:40;100495.97;;;32.46;66.25
23223;BME280;11780;13.904;100.620;2023-08-21T09:16:10;100489.75;;;32.49;66.09
23223;BME280;11780;13.904;100.620;2023-08-21T09:18:49;100480.31;;;32.50;66.09
23223;BME280;11780;13.904;100.620;2023-08-21T09:21:22;100461.13;;;32.45;66.34
23223;BME280;11780;13.904;100.620;2023-08-21T09:24:02;100455.28;;;32.46;65.89
23223;BME280;11780;13.904;100.620;2023-08-21T09:26:37;100456.88;;;32.47;65.83
23223;BME280;11780;13.904;100.620;2023-08-21T09:29:07;100465.16;;;32.47;65.59
23223;BME280;11780;13.904;100.620;2023-08-21T09:31:38;100475.56;;;32.50;65.51
23223;BME280;11780;13.904;100.620;2023-08-21T09:34:09;100483.41;;;32.48;65.55
23223;BME280;11780;13.904;100.620;2023-08-21T09:36:39;100487.78;;;32.49;65.55
23223;BME280;11780;13.904;100.620;2023-08-21T09:39:18;100483.06;;;32.50;65.63
23223;BME280;11780;13.904;100.620;2023-08-21T09:41:56;100484.03;;;32.54;65.63
23223;BME280;11780;13.904;100.620;2023-08-21T09:44:26;100480.44;;;32.54;65.66
23223;BME280;11780;13.904;100.620;2023-08-21T09:46:57;100481.09;;;32.50;65.61
23223;BME280;11780;13.904;100.620;2023-08-21T09:49:27;100481.09;;;32.50;65.70
23223;BME280;11780;13.904;100.620;2023-08-21T09:51:59;100459.09;;;32.54;66.27
23223;BME280;11780;13.904;100.620;2023-08-21T09:54:31;100462.19;;;32.53;66.50
23223;BME280;11780;13.904;100.620;2023-08-21T09:57:01;100466.69;;;32.57;66.19
23223;BME280;11780;13.904;100.620;2023-08-21T09:59:32;100485.16;;;32.53;66.54
23223;BME280;11780;13.904;100.620;2023-08-21T10:02:04;100492.66;;;32.53;66.37
23223;BME280;11780;13.904;100.620;2023-08-21T10:04:35;100498.88;;;32.49;66.33
23223;BME280;11780;13.904;100.620;2023-08-21T10:07:07;100487.31;;;32.47;66.34
23223;BME280;11780;13.904;100.620;2023-08-21T10:09:40;100492.84;;;32.47;66.16
23223;BME280;11780;13.904;100.620;2023-08-21T10:12:14;100504.41;;;32.49;66.11
23223;BME280;11780;13.904;100.620;2023-08-21T10:14:45;100518.25;;;32.49;65.82
23223;BME280;11780;13.904;100.620;2023-08-21T10:17:16;100520.53;;;32.47;65.54
23223;BME280;11780;13.904;100.620;2023-08-21T10:19:52;100516.63;;;32.48;65.54
23223;BME280;11780;13.904;100.620;2023-08-21T10:22:46;100506.38;;;32.49;65.48
23223;BME280;11780;13.904;100.620;2023-08-21T10:25:42;100504.75;;;32.48;65.60
23223;BME280;11780;13.904;100.620;2023-08-21T10:28:12;100516.50;;;32.45;65.88
23223;BME280;11780;13.904;100.620;2023-08-21T10:30:43;100521.25;;;32.44;65.67
23223;BME280;11780;13.904;100.620;2023-08-21T10:33:13;100525.63;;;32.45;65.52
23223;BME280;11780;13.904;100.620;2023-08-21T10:35:44;100533.13;;;32.45;65.32
23223;BME280;11780;13.904;100.620;2023-08-21T10:41:06;100565.19;;;32.46;65.25
23223;BME280;11780;13.904;100.620;2023-08-21T10:43:41;100570.59;;;32.42;65.13
23223;BME280;11780;13.904;100.620;2023-08-21T10:46:15;100571.41;;;32.43;65.18
23223;BME280;11780;13.904;100.620;2023-08-21T10:48:46;100568.63;;;32.43;65.37
23223;BME280;11780;13.904;100.620;2023-08-21T10:51:17;100587.09;;;32.39;65.51
23223;BME280;11780;13.904;100.620;2023-08-21T10:53:47;100580.25;;;32.36;65.24
23223;BME280;11780;13.904;100.620;2023-08-21T10:56:18;100595.69;;;32.37;65.23
23223;BME280;11780;13.904;100.620;2023-08-21T10:58:48;100612.00;;;32.39;65.47
23223;BME280;11780;13.904;100.620;2023-08-21T11:01:21;100614.94;;;32.33;65.65
23223;BME280;11780;13.904;100.620;2023-08-21T11:03:51;100622.91;;;32.35;65.31
23223;BME280;11780;13.904;100.620;2023-08-21T11:06:21;100626.03;;;32.33;65.87
23223;BME280;11780;13.904;100.620;2023-08-21T11:08:52;100635.59;;;32.36;65.60
23223;BME280;11780;13.904;100.620;2023-08-21T11:11:22;100630.53;;;32.38;65.67
23223;BME280;11780;13.904;100.620;2023-08-21T11:13:53;100627.78;;;32.38;65.65
23223;BME280;11780;13.904;100.620;2023-08-21T11:16:25;100638.84;;;32.38;65.71
23223;BME280;11780;13.904;100.620;2023-08-21T11:18:56;100650.75;;;32.39;65.56
23223;BME280;11780;13.904;100.620;2023-08-21T11:21:26;100646.34;;;32.38;65.69
23223;BME280;11780;13.904;100.620;2023-08-21T11:23:56;100650.59;;;32.35;65.61
23223;BME280;11780;13.904;100.620;2023-08-21T11:26:27;100658.88;;;32.35;65.71
23223;BME280;11780;13.904;100.620;2023-08-21T13:15:46;100780.06;;;31.47;66.97
23223;BME280;11780;13.904;100.620;2023-08-21T13:18:16;100792.44;;;31.49;67.07
23223;BME280;11780;13.904;100.620;2023-08-21T13:20:47;100790.47;;;31.58;66.69
23223;BME280;11780;13.904;100.620;2023-08-21T13:23:18;100796.63;;;31.64;66.82
23223;BME280;11780;13.904;100.620;2023-08-21T13:25:49;100792.75;;;31.74;66.96
23223;BME280;11780;13.904;100.620;2023-08-21T13:28:19;100795.34;;;31.79;66.82
23223;BME280;11780;13.904;100.620;2023-08-21T13:30:50;100795.63;;;31.86;66.54
23223;BME280;11780;13.904;100.620;2023-08-21T13:33:20;100809.47;;;31.86;67.05
23223;BME280;11780;13.904;100.620;2023-08-21T13:35:51;100802.81;;;31.87;66.64
23223;BME280;11780;13.904;100.620;2023-08-21T13:38:21;100811.41;;;31.95;66.92
23223;BME280;11780;13.904;100.620;2023-08-21T13:40:52;100822.13;;;32.05;66.86
23223;BME280;11780;13.904;100.620;2023-08-21T13:43:22;100821.63;;;32.03;66.72
23223;BME280;11780;13.904;100.620;2023-08-21T13:46:02;100824.13;;;31.96;66.97
23223;BME280;11780;13.904;100.620;2023-08-21T13:48:36;100831.09;;;31.93;67.10
23223;BME280;11780;13.904;100.620;2023-08-21T13:51:06;100832.06;;;31.97;67.04
23223;BME280;11780;13.904;100.620;2023-08-21T13:53:36;100841.00;;;32.03;67.03
23223;BME280;11780;13.904;100.620;2023-08-21T13:56:07;100843.94;;;32.07;67.29
23223;BME280;11780;13.904;100.620;2023-08-21T13:58:38;100839.34;;;32.11;67.35
23223;BME280;11780;13.904;100.620;2023-08-21T14:01:08;100845.53;;;32.16;67.20
23223;BME280;11780;13.904;100.620;2023-08-21T14:03:39;100845.88;;;32.15;67.17
23223;BME280;11780;13.904;100.620;2023-08-21T14:06:09;100850.09;;;32.12;67.74
23223;BME280;11780;13.904;100.620;2023-08-21T14:08:41;100859.66;;;32.24;67.63
23223;BME280;11780;13.904;100.620;2023-08-21T14:11:12;100869.78;;;32.19;67.96
23223;BME280;11780;13.904;100.620;2023-08-21T14:13:43;100873.03;;;32.22;68.20
23223;BME280;11780;13.904;100.620;2023-08-21T14:16:13;100884.59;;;32.24;68.35
23223;BME280;11780;13.904;100.620;2023-08-21T14:18:43;100888.50;;;32.23;68.66
23223;BME280;11780;13.904;100.620;2023-08-21T14:21:15;100886.22;;;32.25;68.66
23223;BME280;11780;13.904;100.620;2023-08-21T14:23:45;100888.50;;;32.23;68.92
23223;BME280;11780;13.904;100.620;2023-08-21T14:26:16;100892.09;;;32.23;69.24
23223;BME280;11780;13.904;100.620;2023-08-21T14:28:46;100895.31;;;32.25;69.16
23223;BME280;11780;13.904;100.620;2023-08-21T14:31:20;100898.41;;;32.24;69.60
23223;BME280;11780;13.904;100.620;2023-08-21T14:33:50;100892.88;;;32.24;69.54
23223;BME280;11780;13.904;100.620;2023-08-21T14:36:21;100901.53;;;32.22;69.59
23223;BME280;11780;13.904;100.620;2023-08-21T14:38:51;100900.03;;;32.25;70.02
23223;BME280;11780;13.904;100.620;2023-08-21T14:41:22;100908.69;;;32.23;69.68
23223;BME280;11780;13.904;100.620;2023-08-21T14:43:52;100907.88;;;32.23;70.01
23223;BME280;11780;13.904;100.620;2023-08-21T14:46:22;100915.81;;;32.24;69.81